sensor_id;sensor_type;location;lat;lon;timestamp;temperature;humidity
52016;DHT22;38032;53.326;6.472;2023-04-24T00:02:11;11.30;99.90
52016;DHT22;38032;53.326;6.472;2023-04-24T00:04:38;11.30;99.90
52016;DHT22;38032;53.326;6.472;2023-04-24T00:07:06;11.30;99.90
52016;DHT22;38032;53.326;6.472;2023-04-24T00:09:33;11.30;99.90
52016;DHT22;38032;53.326;6.472;2023-04-24T00:11:59;11.30;99.90
52016;DHT22;38032;53.326;6.472;2023-04-24T00:14:25;11.30;99.90
52016;DHT22;38032;53.326;6.472;2023-04-24T00:16:51;11.20;99.90
52016;DHT22;38032;53.326;6.472;2023-04-24T00:19:17;11.20;99.90
52016;DHT22;38032;53.326;6.472;2023-04-24T00:21:43;11.10;99.90
52016;DHT22;38032;53.326;6.472;2023-04-24T00:24:08;11.10;99.90
52016;DHT22;38032;53.326;6.472;2023-04-24T00:26:35;11.20;99.90
52016;DHT22;38032;53.326;6.472;2023-04-24T00:29:00;11.10;99.90
52016;DHT22;38032;53.326;6.472;2023-04-24T00:31:26;11.20;99.90
52016;DHT22;38032;53.326;6.472;2023-04-24T00:33:52;11.20;99.90
52016;DHT22;38032;53.326;6.472;2023-04-24T00:36:18;11.20;99.90
52016;DHT22;38032;53.326;6.472;2023-04-24T00:38:46;11.20;99.90
52016;DHT22;38032;53.326;6.472;2023-04-24T00:41:12;11.20;99.90
52016;DHT22;38032;53.326;6.472;2023-04-24T00:43:38;11.30;99.90
52016;DHT22;38032;53.326;6.472;2023-04-24T00:46:05;11.30;99.90
52016;DHT22;38032;53.326;6.472;2023-04-24T00:48:31;11.30;99.90
52016;DHT22;38032;53.326;6.472;2023-04-24T00:50:57;11.30;99.90
52016;DHT22;38032;53.326;6.472;2023-04-24T00:53:24;11.30;99.90
52016;DHT22;38032;53.326;6.472;2023-04-24T00:55:50;11.30;99.90
52016;DHT22;38032;53.326;6.472;2023-04-24T00:58:16;11.30;99.90
52016;DHT22;38032;53.326;6.472;2023-04-24T01:00:43;11.30;99.90
52016;DHT22;38032;53.326;6.472;2023-04-24T01:03:09;11.30;99.90
52016;DHT22;38032;53.326;6.472;2023-04-24T01:05:36;11.30;99.90
52016;DHT22;38032;53.326;6.472;2023-04-24T01:08:03;11.30;99.90
52016;DHT22;38032;53.326;6.472;2023-04-24T01:10:29;11.30;99.90
52016;DHT22;38032;53.326;6.472;2023-04-24T01:12:58;11.20;99.90
52016;DHT22;38032;53.326;6.472;2023-04-24T01:15:23;11.20;99.90
52016;DHT22;38032;53.326;6.472;2023-04-24T01:17:49;11.10;99.90
52016;DHT22;38032;53.326;6.472;2023-04-24T01:20:16;11.10;99.90
52016;DHT22;38032;53.326;6.472;2023-04-24T01:22:42;11.10;99.90
52016;DHT22;38032;53.326;6.472;2023-04-24T01:25:08;11.10;99.90
52016;DHT22;38032;53.326;6.472;2023-04-24T01:27:34;11.00;99.90
52016;DHT22;38032;53.326;6.472;2023-04-24T01:30:00;11.00;99.90
52016;DHT22;38032;53.326;6.472;2023-04-24T01:32:27;11.00;99.90
52016;DHT22;38032;53.326;6.472;2023-04-24T01:34:54;11.00;99.90
52016;DHT22;38032;53.326;6.472;2023-04-24T01:37:20;11.00;99.90
52016;DHT22;38032;53.326;6.472;2023-04-24T01:39:46;10.90;99.90
52016;DHT22;38032;53.326;6.472;2023-04-24T01:42:12;11.00;99.90
52016;DHT22;38032;53.326;6.472;2023-04-24T01:44:38;11.00;99.90
52016;DHT22;38032;53.326;6.472;2023-04-24T01:47:05;10.90;99.90
52016;DHT22;38032;53.326;6.472;2023-04-24T01:49:32;10.90;99.90
52016;DHT22;38032;53.326;6.472;2023-04-24T01:51:58;10.90;99.90
52016;DHT22;38032;53.326;6.472;2023-04-24T01:54:24;10.80;99.90
52016;DHT22;38032;53.326;6.472;2023-04-24T01:56:50;10.80;99.90
52016;DHT22;38032;53.326;6.472;2023-04-24T01:59:17;10.80;99.90
52016;DHT22;38032;53.326;6.472;2023-04-24T02:01:43;10.80;99.90
52016;DHT22;38032;53.326;6.472;2023-04-24T02:04:09;10.80;99.90
52016;DHT22;38032;53.326;6.472;2023-04-24T02:06:35;10.80;99.90
52016;DHT22;38032;53.326;6.472;2023-04-24T02:09:00;10.80;99.90
52016;DHT22;38032;53.326;6.472;2023-04-24T02:11:26;10.80;99.90
52016;DHT22;38032;53.326;6.472;2023-04-24T02:13:53;10.70;99.90
52016;DHT22;38032;53.326;6.472;2023-04-24T02:16:19;10.70;99.90
52016;DHT22;38032;53.326;6.472;2023-04-24T02:18:44;10.70;99.90
52016;DHT22;38032;53.326;6.472;2023-04-24T02:21:11;10.80;99.90
52016;DHT22;38032;53.326;6.472;2023-04-24T02:23:36;10.80;99.90
52016;DHT22;38032;53.326;6.472;2023-04-24T02:26:02;10.80;99.90
52016;DHT22;38032;53.326;6.472;2023-04-24T02:28:28;10.80;99.90
52016;DHT22;38032;53.326;6.472;2023-04-24T02:30:54;10.80;99.90
52016;DHT22;38032;53.326;6.472;2023-04-24T02:33:20;10.70;99.90
52016;DHT22;38032;53.326;6.472;2023-04-24T02:35:46;10.80;99.90
52016;DHT22;38032;53.326;6.472;2023-04-24T02:38:11;10.80;99.90
52016;DHT22;38032;53.326;6.472;2023-04-24T02:40:37;10.80;99.90
52016;DHT22;38032;53.326;6.472;2023-04-24T02:43:03;10.80;99.90
52016;DHT22;38032;53.326;6.472;2023-04-24T02:45:29;10.80;99.90
52016;DHT22;38032;53.326;6.472;2023-04-24T02:47:55;10.80;99.90
52016;DHT22;38032;53.326;6.472;2023-04-24T02:50:21;10.90;99.90
52016;DHT22;38032;53.326;6.472;2023-04-24T02:52:47;10.80;99.90
52016;DHT22;38032;53.326;6.472;2023-04-24T02:55:12;10.90;99.90
52016;DHT22;38032;53.326;6.472;2023-04-24T02:57:38;10.90;99.90
52016;DHT22;38032;53.326;6.472;2023-04-24T03:00:05;10.90;99.90
52016;DHT22;38032;53.326;6.472;2023-04-24T03:02:32;10.90;99.90
52016;DHT22;38032;53.326;6.472;2023-04-24T03:04:58;10.90;99.90
52016;DHT22;38032;53.326;6.472;2023-04-24T03:07:25;10.90;99.90
52016;DHT22;38032;53.326;6.472;2023-04-24T03:09:51;10.90;99.90
52016;DHT22;38032;53.326;6.472;2023-04-24T03:12:17;11.00;99.90
52016;DHT22;38032;53.326;6.472;2023-04-24T03:14:43;11.00;99.90
52016;DHT22;38032;53.326;6.472;2023-04-24T03:17:09;10.90;99.90
52016;DHT22;38032;53.326;6.472;2023-04-24T03:19:35;11.00;99.90
52016;DHT22;38032;53.326;6.472;2023-04-24T03:22:02;11.00;99.90
52016;DHT22;38032;53.326;6.472;2023-04-24T03:24:28;11.00;99.90
52016;DHT22;38032;53.326;6.472;2023-04-24T03:26:54;11.00;99.90
52016;DHT22;38032;53.326;6.472;2023-04-24T03:29:22;11.00;99.90
52016;DHT22;38032;53.326;6.472;2023-04-24T03:31:48;11.00;99.90
52016;DHT22;38032;53.326;6.472;2023-04-24T03:34:14;11.00;99.90
52016;DHT22;38032;53.326;6.472;2023-04-24T03:36:39;11.00;99.90
52016;DHT22;38032;53.326;6.472;2023-04-24T03:39:05;11.10;99.90
52016;DHT22;38032;53.326;6.472;2023-04-24T03:41:31;11.10;99.90
52016;DHT22;38032;53.326;6.472;2023-04-24T03:43:57;11.10;99.90
52016;DHT22;38032;53.326;6.472;2023-04-24T03:46:23;11.10;99.90
52016;DHT22;38032;53.326;6.472;2023-04-24T03:48:49;11.10;99.90
52016;DHT22;38032;53.326;6.472;2023-04-24T03:51:15;11.10;99.90
52016;DHT22;38032;53.326;6.472;2023-04-24T03:53:41;11.10;99.90
52016;DHT22;38032;53.326;6.472;2023-04-24T03:56:07;11.10;99.90
52016;DHT22;38032;53.326;6.472;2023-04-24T03:58:33;11.20;99.90
52016;DHT22;38032;53.326;6.472;2023-04-24T04:00:58;11.20;99.90
52016;DHT22;38032;53.326;6.472;2023-04-24T04:03:25;11.20;99.90
52016;DHT22;38032;53.326;6.472;2023-04-24T04:05:51;11.20;99.90
52016;DHT22;38032;53.326;6.472;2023-04-24T04:08:17;11.20;99.90
52016;DHT22;38032;53.326;6.472;2023-04-24T04:10:43;11.20;99.90
52016;DHT22;38032;53.326;6.472;2023-04-24T04:13:09;11.20;99.90
52016;DHT22;38032;53.326;6.472;2023-04-24T04:15:35;11.30;99.90
52016;DHT22;38032;53.326;6.472;2023-04-24T04:18:01;11.30;99.90
52016;DHT22;38032;53.326;6.472;2023-04-24T04:20:27;11.20;99.90
52016;DHT22;38032;53.326;6.472;2023-04-24T04:22:53;11.20;99.90
52016;DHT22;38032;53.326;6.472;2023-04-24T04:25:19;11.20;99.90
52016;DHT22;38032;53.326;6.472;2023-04-24T04:27:46;11.20;99.90
52016;DHT22;38032;53.326;6.472;2023-04-24T04:30:13;11.20;99.90
52016;DHT22;38032;53.326;6.472;2023-04-24T04:32:39;11.20;99.90
52016;DHT22;38032;53.326;6.472;2023-04-24T04:35:06;11.20;99.90
52016;DHT22;38032;53.326;6.472;2023-04-24T04:37:32;11.30;99.90
52016;DHT22;38032;53.326;6.472;2023-04-24T04:40:00;11.20;99.90
52016;DHT22;38032;53.326;6.472;2023-04-24T04:42:26;11.20;99.90
52016;DHT22;38032;53.326;6.472;2023-04-24T04:44:53;11.20;99.90
52016;DHT22;38032;53.326;6.472;2023-04-24T04:47:21;11.20;99.90
52016;DHT22;38032;53.326;6.472;2023-04-24T04:49:49;11.20;99.90
52016;DHT22;38032;53.326;6.472;2023-04-24T04:52:16;11.20;99.90
52016;DHT22;38032;53.326;6.472;2023-04-24T04:54:43;11.20;99.90
52016;DHT22;38032;53.326;6.472;2023-04-24T04:57:09;11.20;99.90
52016;DHT22;38032;53.326;6.472;2023-04-24T04:59:35;11.20;99.90
52016;DHT22;38032;53.326;6.472;2023-04-24T05:02:01;11.20;99.90
52016;DHT22;38032;53.326;6.472;2023-04-24T05:04:27;11.20;99.90
52016;DHT22;38032;53.326;6.472;2023-04-24T05:06:53;11.20;99.90
52016;DHT22;38032;53.326;6.472;2023-04-24T05:09:19;11.20;99.90
52016;DHT22;38032;53.326;6.472;2023-04-24T05:11:45;11.20;99.90
52016;DHT22;38032;53.326;6.472;2023-04-24T05:14:10;11.30;99.90
52016;DHT22;38032;53.326;6.472;2023-04-24T05:16:38;11.30;99.90
52016;DHT22;38032;53.326;6.472;2023-04-24T05:19:04;11.30;99.90
52016;DHT22;38032;53.326;6.472;2023-04-24T05:21:30;11.30;99.90
52016;DHT22;38032;53.326;6.472;2023-04-24T05:23:56;11.30;99.90
52016;DHT22;38032;53.326;6.472;2023-04-24T05:26:22;11.30;99.90
52016;DHT22;38032;53.326;6.472;2023-04-24T05:28:48;11.30;99.90
52016;DHT22;38032;53.326;6.472;2023-04-24T05:31:14;11.30;99.90
52016;DHT22;38032;53.326;6.472;2023-04-24T05:33:40;11.30;99.90
52016;DHT22;38032;53.326;6.472;2023-04-24T05:36:06;11.30;99.90
52016;DHT22;38032;53.326;6.472;2023-04-24T05:38:32;11.30;99.90
52016;DHT22;38032;53.326;6.472;2023-04-24T05:40:58;11.30;99.90
52016;DHT22;38032;53.326;6.472;2023-04-24T05:43:24;11.30;99.90
52016;DHT22;38032;53.326;6.472;2023-04-24T05:45:50;11.30;99.90
52016;DHT22;38032;53.326;6.472;2023-04-24T05:48:16;11.30;99.90
52016;DHT22;38032;53.326;6.472;2023-04-24T05:50:42;11.30;99.90
52016;DHT22;38032;53.326;6.472;2023-04-24T05:53:08;11.30;99.90
52016;DHT22;38032;53.326;6.472;2023-04-24T05:55:36;11.30;99.90
52016;DHT22;38032;53.326;6.472;2023-04-24T05:58:02;11.40;99.90
52016;DHT22;38032;53.326;6.472;2023-04-24T06:00:28;11.40;99.90
52016;DHT22;38032;53.326;6.472;2023-04-24T06:02:54;11.40;99.90
52016;DHT22;38032;53.326;6.472;2023-04-24T06:05:20;11.40;99.90
52016;DHT22;38032;53.326;6.472;2023-04-24T06:07:47;11.40;99.90
52016;DHT22;38032;53.326;6.472;2023-04-24T06:10:13;11.40;99.90
52016;DHT22;38032;53.326;6.472;2023-04-24T06:12:39;11.40;99.90
52016;DHT22;38032;53.326;6.472;2023-04-24T06:15:06;11.40;99.90
52016;DHT22;38032;53.326;6.472;2023-04-24T06:17:32;11.40;99.90
52016;DHT22;38032;53.326;6.472;2023-04-24T06:19:58;11.40;99.90
52016;DHT22;38032;53.326;6.472;2023-04-24T06:22:24;11.40;99.90
52016;DHT22;38032;53.326;6.472;2023-04-24T06:24:50;11.40;99.90
52016;DHT22;38032;53.326;6.472;2023-04-24T06:27:15;11.30;99.90
52016;DHT22;38032;53.326;6.472;2023-04-24T06:29:41;11.40;99.90
52016;DHT22;38032;53.326;6.472;2023-04-24T06:32:07;11.30;99.90
52016;DHT22;38032;53.326;6.472;2023-04-24T06:34:33;11.30;99.90
52016;DHT22;38032;53.326;6.472;2023-04-24T06:37:00;11.40;99.90
52016;DHT22;38032;53.326;6.472;2023-04-24T06:39:26;11.30;99.90
52016;DHT22;38032;53.326;6.472;2023-04-24T06:41:52;11.40;99.90
52016;DHT22;38032;53.326;6.472;2023-04-24T06:44:18;11.40;99.90
52016;DHT22;38032;53.326;6.472;2023-04-24T06:46:44;11.40;99.90
52016;DHT22;38032;53.326;6.472;2023-04-24T06:49:09;11.50;99.90
52016;DHT22;38032;53.326;6.472;2023-04-24T06:51:35;11.50;99.90
52016;DHT22;38032;53.326;6.472;2023-04-24T06:54:02;11.50;99.90
52016;DHT22;38032;53.326;6.472;2023-04-24T06:56:27;11.50;99.90
52016;DHT22;38032;53.326;6.472;2023-04-24T06:58:54;11.60;99.90
52016;DHT22;38032;53.326;6.472;2023-04-24T07:01:20;11.60;99.90
52016;DHT22;38032;53.326;6.472;2023-04-24T07:03:46;11.60;99.90
52016;DHT22;38032;53.326;6.472;2023-04-24T07:06:12;11.50;99.90
52016;DHT22;38032;53.326;6.472;2023-04-24T07:08:38;11.50;99.90
52016;DHT22;38032;53.326;6.472;2023-04-24T07:11:04;11.50;99.90
52016;DHT22;38032;53.326;6.472;2023-04-24T07:13:31;11.50;99.90
52016;DHT22;38032;53.326;6.472;2023-04-24T07:15:57;11.50;99.90
52016;DHT22;38032;53.326;6.472;2023-04-24T07:18:22;11.50;99.90
52016;DHT22;38032;53.326;6.472;2023-04-24T07:20:48;11.50;99.90
52016;DHT22;38032;53.326;6.472;2023-04-24T07:23:16;11.50;99.90
52016;DHT22;38032;53.326;6.472;2023-04-24T07:25:42;11.50;99.90
52016;DHT22;38032;53.326;6.472;2023-04-24T07:28:08;11.50;99.90
52016;DHT22;38032;53.326;6.472;2023-04-24T07:30:34;11.50;99.90
52016;DHT22;38032;53.326;6.472;2023-04-24T07:33:00;11.50;99.90
52016;DHT22;38032;53.326;6.472;2023-04-24T07:35:26;11.60;99.90
52016;DHT22;38032;53.326;6.472;2023-04-24T07:37:53;11.60;99.90
52016;DHT22;38032;53.326;6.472;2023-04-24T07:40:20;11.60;99.90
52016;DHT22;38032;53.326;6.472;2023-04-24T07:42:46;11.60;99.90
52016;DHT22;38032;53.326;6.472;2023-04-24T07:45:14;11.60;99.90
52016;DHT22;38032;53.326;6.472;2023-04-24T07:47:42;11.50;99.90
52016;DHT22;38032;53.326;6.472;2023-04-24T07:50:09;11.50;99.90
52016;DHT22;38032;53.326;6.472;2023-04-24T07:52:35;11.50;99.90
52016;DHT22;38032;53.326;6.472;2023-04-24T07:55:01;11.50;99.90
52016;DHT22;38032;53.326;6.472;2023-04-24T07:57:28;11.50;99.90
52016;DHT22;38032;53.326;6.472;2023-04-24T07:59:54;11.50;99.90
52016;DHT22;38032;53.326;6.472;2023-04-24T08:02:20;11.50;99.90
52016;DHT22;38032;53.326;6.472;2023-04-24T08:04:52;11.50;99.90
52016;DHT22;38032;53.326;6.472;2023-04-24T08:07:19;11.50;99.90
52016;DHT22;38032;53.326;6.472;2023-04-24T08:09:45;11.50;99.90
52016;DHT22;38032;53.326;6.472;2023-04-24T08:12:12;11.50;99.90
52016;DHT22;38032;53.326;6.472;2023-04-24T08:14:37;11.60;99.90
52016;DHT22;38032;53.326;6.472;2023-04-24T08:17:04;11.50;99.90
52016;DHT22;38032;53.326;6.472;2023-04-24T08:19:30;11.60;99.90
52016;DHT22;38032;53.326;6.472;2023-04-24T08:21:56;11.60;99.90
52016;DHT22;38032;53.326;6.472;2023-04-24T08:24:23;11.60;99.90
52016;DHT22;38032;53.326;6.472;2023-04-24T08:26:49;11.70;99.90
52016;DHT22;38032;53.326;6.472;2023-04-24T08:29:17;11.70;99.90
52016;DHT22;38032;53.326;6.472;2023-04-24T08:31:43;11.70;99.90
52016;DHT22;38032;53.326;6.472;2023-04-24T08:34:09;11.70;99.90
52016;DHT22;38032;53.326;6.472;2023-04-24T08:36:36;11.60;99.90
52016;DHT22;38032;53.326;6.472;2023-04-24T08:39:02;11.60;99.90
52016;DHT22;38032;53.326;6.472;2023-04-24T08:41:28;11.60;99.90
52016;DHT22;38032;53.326;6.472;2023-04-24T08:43:55;11.60;99.90
52016;DHT22;38032;53.326;6.472;2023-04-24T08:46:24;11.60;99.90
52016;DHT22;38032;53.326;6.472;2023-04-24T08:48:52;11.60;99.90
52016;DHT22;38032;53.326;6.472;2023-04-24T08:51:18;11.50;99.90
52016;DHT22;38032;53.326;6.472;2023-04-24T08:53:46;11.50;99.90
52016;DHT22;38032;53.326;6.472;2023-04-24T08:56:13;11.50;99.90
52016;DHT22;38032;53.326;6.472;2023-04-24T08:58:39;11.50;99.90
52016;DHT22;38032;53.326;6.472;2023-04-24T09:01:06;11.50;99.90
52016;DHT22;38032;53.326;6.472;2023-04-24T09:03:33;11.50;99.90
52016;DHT22;38032;53.326;6.472;2023-04-24T09:06:00;11.50;99.90
52016;DHT22;38032;53.326;6.472;2023-04-24T09:08:28;11.50;99.90
52016;DHT22;38032;53.326;6.472;2023-04-24T09:10:55;11.60;99.90
52016;DHT22;38032;53.326;6.472;2023-04-24T09:13:24;11.60;99.90
52016;DHT22;38032;53.326;6.472;2023-04-24T09:15:50;11.60;99.90
52016;DHT22;38032;53.326;6.472;2023-04-24T09:18:18;11.60;99.90
52016;DHT22;38032;53.326;6.472;2023-04-24T09:23:27;11.70;99.90
52016;DHT22;38032;53.326;6.472;2023-04-24T09:25:55;11.70;99.90
52016;DHT22;38032;53.326;6.472;2023-04-24T09:28:32;11.70;99.90
52016;DHT22;38032;53.326;6.472;2023-04-24T09:31:04;11.80;99.90
52016;DHT22;38032;53.326;6.472;2023-04-24T09:33:30;11.80;99.90
52016;DHT22;38032;53.326;6.472;2023-04-24T09:35:56;11.80;99.90
52016;DHT22;38032;53.326;6.472;2023-04-24T09:38:32;11.70;99.90
52016;DHT22;38032;53.326;6.472;2023-04-24T09:41:01;11.70;99.90
52016;DHT22;38032;53.326;6.472;2023-04-24T09:43:29;11.70;99.90
52016;DHT22;38032;53.326;6.472;2023-04-24T09:45:57;11.60;99.90
52016;DHT22;38032;53.326;6.472;2023-04-24T09:48:31;11.60;99.90
52016;DHT22;38032;53.326;6.472;2023-04-24T09:50:58;11.50;99.90
52016;DHT22;38032;53.326;6.472;2023-04-24T09:53:24;11.50;99.90
52016;DHT22;38032;53.326;6.472;2023-04-24T09:55:51;11.50;99.90
52016;DHT22;38032;53.326;6.472;2023-04-24T09:58:25;11.60;99.90
52016;DHT22;38032;53.326;6.472;2023-04-24T10:00:56;11.60;99.90
52016;DHT22;38032;53.326;6.472;2023-04-24T10:03:32;11.70;99.90
52016;DHT22;38032;53.326;6.472;2023-04-24T10:05:59;11.90;99.90
52016;DHT22;38032;53.326;6.472;2023-04-24T10:08:25;12.00;99.90
52016;DHT22;38032;53.326;6.472;2023-04-24T10:10:52;12.10;99.90
52016;DHT22;38032;53.326;6.472;2023-04-24T10:13:18;12.30;99.90
52016;DHT22;38032;53.326;6.472;2023-04-24T10:15:45;12.40;99.90
52016;DHT22;38032;53.326;6.472;2023-04-24T10:18:12;12.50;99.90
52016;DHT22;38032;53.326;6.472;2023-04-24T10:20:40;12.60;99.90
52016;DHT22;38032;53.326;6.472;2023-04-24T10:23:07;12.70;99.90
52016;DHT22;38032;53.326;6.472;2023-04-24T10:25:34;12.80;99.90
52016;DHT22;38032;53.326;6.472;2023-04-24T10:28:01;12.80;99.90
52016;DHT22;38032;53.326;6.472;2023-04-24T10:30:30;12.90;99.90
52016;DHT22;38032;53.326;6.472;2023-04-24T10:32:56;13.00;99.90
52016;DHT22;38032;53.326;6.472;2023-04-24T10:35:22;13.00;99.90
52016;DHT22;38032;53.326;6.472;2023-04-24T10:37:57;13.00;99.90
52016;DHT22;38032;53.326;6.472;2023-04-24T10:40:31;13.10;99.90
52016;DHT22;38032;53.326;6.472;2023-04-24T10:42:57;13.10;99.90
52016;DHT22;38032;53.326;6.472;2023-04-24T10:45:24;13.10;99.90
52016;DHT22;38032;53.326;6.472;2023-04-24T10:47:52;13.10;99.90
52016;DHT22;38032;53.326;6.472;2023-04-24T10:50:18;13.10;99.90
52016;DHT22;38032;53.326;6.472;2023-04-24T10:52:45;13.20;99.90
52016;DHT22;38032;53.326;6.472;2023-04-24T10:55:13;13.30;99.90
52016;DHT22;38032;53.326;6.472;2023-04-24T10:57:40;13.40;99.90
52016;DHT22;38032;53.326;6.472;2023-04-24T11:00:26;13.60;99.90
52016;DHT22;38032;53.326;6.472;2023-04-24T11:02:53;13.70;99.90
52016;DHT22;38032;53.326;6.472;2023-04-24T11:05:20;13.90;99.90
52016;DHT22;38032;53.326;6.472;2023-04-24T11:08:12;14.00;99.90
52016;DHT22;38032;53.326;6.472;2023-04-24T11:10:39;14.10;99.90
52016;DHT22;38032;53.326;6.472;2023-04-24T11:13:06;14.10;99.90
52016;DHT22;38032;53.326;6.472;2023-04-24T11:15:32;14.20;99.90
52016;DHT22;38032;53.326;6.472;2023-04-24T11:17:57;14.30;99.90
52016;DHT22;38032;53.326;6.472;2023-04-24T11:20:23;14.40;99.90
52016;DHT22;38032;53.326;6.472;2023-04-24T11:22:53;14.40;99.90
52016;DHT22;38032;53.326;6.472;2023-04-24T11:25:21;14.40;99.90
52016;DHT22;38032;53.326;6.472;2023-04-24T11:27:48;14.40;99.90
52016;DHT22;38032;53.326;6.472;2023-04-24T11:30:20;14.30;99.90
52016;DHT22;38032;53.326;6.472;2023-04-24T11:32:51;14.30;99.90
52016;DHT22;38032;53.326;6.472;2023-04-24T11:35:21;14.20;99.90
52016;DHT22;38032;53.326;6.472;2023-04-24T11:37:52;14.10;99.90
52016;DHT22;38032;53.326;6.472;2023-04-24T11:40:20;13.90;99.90
52016;DHT22;38032;53.326;6.472;2023-04-24T11:42:49;13.70;99.90
52016;DHT22;38032;53.326;6.472;2023-04-24T11:45:17;13.60;99.90
52016;DHT22;38032;53.326;6.472;2023-04-24T11:47:44;13.50;99.90
52016;DHT22;38032;53.326;6.472;2023-04-24T11:50:14;13.40;99.90
52016;DHT22;38032;53.326;6.472;2023-04-24T11:52:41;13.30;99.90
52016;DHT22;38032;53.326;6.472;2023-04-24T11:57:48;13.10;99.90
52016;DHT22;38032;53.326;6.472;2023-04-24T12:00:22;13.00;99.90
52016;DHT22;38032;53.326;6.472;2023-04-24T12:02:49;12.90;99.90
52016;DHT22;38032;53.326;6.472;2023-04-24T12:05:34;12.80;99.90
52016;DHT22;38032;53.326;6.472;2023-04-24T12:08:00;12.70;99.90
52016;DHT22;38032;53.326;6.472;2023-04-24T12:10:29;12.60;99.90
52016;DHT22;38032;53.326;6.472;2023-04-24T12:12:56;12.50;99.90
52016;DHT22;38032;53.326;6.472;2023-04-24T12:15:23;12.40;99.90
52016;DHT22;38032;53.326;6.472;2023-04-24T12:17:51;12.40;99.90
52016;DHT22;38032;53.326;6.472;2023-04-24T12:20:22;12.30;99.90
52016;DHT22;38032;53.326;6.472;2023-04-24T12:22:51;12.30;99.90
52016;DHT22;38032;53.326;6.472;2023-04-24T12:25:21;12.20;99.90
52016;DHT22;38032;53.326;6.472;2023-04-24T12:30:44;12.20;99.90
52016;DHT22;38032;53.326;6.472;2023-04-24T12:33:17;12.20;99.90
52016;DHT22;38032;53.326;6.472;2023-04-24T12:35:44;12.20;99.90
52016;DHT22;38032;53.326;6.472;2023-04-24T12:38:12;12.30;99.90
52016;DHT22;38032;53.326;6.472;2023-04-24T12:40:39;12.40;99.90
52016;DHT22;38032;53.326;6.472;2023-04-24T12:43:17;12.40;99.90
52016;DHT22;38032;53.326;6.472;2023-04-24T12:45:44;12.50;99.90
52016;DHT22;38032;53.326;6.472;2023-04-24T12:48:11;12.60;99.90
52016;DHT22;38032;53.326;6.472;2023-04-24T12:50:38;12.70;99.90
52016;DHT22;38032;53.326;6.472;2023-04-24T12:53:04;12.80;99.90
52016;DHT22;38032;53.326;6.472;2023-04-24T12:55:30;12.80;99.90
52016;DHT22;38032;53.326;6.472;2023-04-24T12:57:56;12.80;99.90
52016;DHT22;38032;53.326;6.472;2023-04-24T13:00:22;12.70;99.90
52016;DHT22;38032;53.326;6.472;2023-04-24T13:02:47;12.70;99.90
52016;DHT22;38032;53.326;6.472;2023-04-24T13:05:13;12.70;99.90
52016;DHT22;38032;53.326;6.472;2023-04-24T13:07:39;12.80;99.90
52016;DHT22;38032;53.326;6.472;2023-04-24T13:10:06;12.70;99.90
52016;DHT22;38032;53.326;6.472;2023-04-24T13:12:32;12.70;99.90
52016;DHT22;38032;53.326;6.472;2023-04-24T13:14:58;12.60;99.90
52016;DHT22;38032;53.326;6.472;2023-04-24T13:17:24;12.50;99.90
52016;DHT22;38032;53.326;6.472;2023-04-24T13:19:51;12.40;99.90
52016;DHT22;38032;53.326;6.472;2023-04-24T13:22:17;12.30;99.90
52016;DHT22;38032;53.326;6.472;2023-04-24T13:24:44;12.30;99.90
52016;DHT22;38032;53.326;6.472;2023-04-24T13:27:10;12.20;99.90
52016;DHT22;38032;53.326;6.472;2023-04-24T13:29:37;12.20;99.90
52016;DHT22;38032;53.326;6.472;2023-04-24T13:32:03;12.30;99.90
52016;DHT22;38032;53.326;6.472;2023-04-24T13:34:29;12.40;99.90
52016;DHT22;38032;53.326;6.472;2023-04-24T13:36:56;12.50;99.90
52016;DHT22;38032;53.326;6.472;2023-04-24T13:39:23;12.60;99.90
52016;DHT22;38032;53.326;6.472;2023-04-24T13:41:50;12.70;99.90
52016;DHT22;38032;53.326;6.472;2023-04-24T13:44:17;12.80;99.90
52016;DHT22;38032;53.326;6.472;2023-04-24T13:46:44;12.90;99.90
52016;DHT22;38032;53.326;6.472;2023-04-24T13:49:12;13.00;99.90
52016;DHT22;38032;53.326;6.472;2023-04-24T13:51:38;12.90;99.90
52016;DHT22;38032;53.326;6.472;2023-04-24T13:54:04;12.90;99.90
52016;DHT22;38032;53.326;6.472;2023-04-24T13:56:30;12.70;99.90
52016;DHT22;38032;53.326;6.472;2023-04-24T13:58:56;12.50;99.90
52016;DHT22;38032;53.326;6.472;2023-04-24T14:01:22;12.40;99.90
52016;DHT22;38032;53.326;6.472;2023-04-24T14:03:51;12.20;99.90
52016;DHT22;38032;53.326;6.472;2023-04-24T14:06:18;12.10;99.90
52016;DHT22;38032;53.326;6.472;2023-04-24T14:08:45;12.10;99.90
52016;DHT22;38032;53.326;6.472;2023-04-24T14:11:11;12.00;99.90
52016;DHT22;38032;53.326;6.472;2023-04-24T14:13:37;12.00;99.90
52016;DHT22;38032;53.326;6.472;2023-04-24T14:16:04;12.10;99.90
52016;DHT22;38032;53.326;6.472;2023-04-24T14:18:30;12.00;99.90
52016;DHT22;38032;53.326;6.472;2023-04-24T14:20:56;12.00;99.90
52016;DHT22;38032;53.326;6.472;2023-04-24T14:23:22;11.90;99.90
52016;DHT22;38032;53.326;6.472;2023-04-24T14:25:48;11.90;99.90
52016;DHT22;38032;53.326;6.472;2023-04-24T14:28:18;11.90;99.90
52016;DHT22;38032;53.326;6.472;2023-04-24T14:30:44;11.80;99.90
52016;DHT22;38032;53.326;6.472;2023-04-24T14:33:10;11.80;99.90
52016;DHT22;38032;53.326;6.472;2023-04-24T14:35:37;11.70;99.90
52016;DHT22;38032;53.326;6.472;2023-04-24T14:38:03;11.70;99.90
52016;DHT22;38032;53.326;6.472;2023-04-24T14:40:29;11.70;99.90
52016;DHT22;38032;53.326;6.472;2023-04-24T14:42:55;11.70;99.90
52016;DHT22;38032;53.326;6.472;2023-04-24T14:45:25;11.70;99.90
52016;DHT22;38032;53.326;6.472;2023-04-24T14:47:51;11.70;99.90
52016;DHT22;38032;53.326;6.472;2023-04-24T14:50:17;11.60;99.90
52016;DHT22;38032;53.326;6.472;2023-04-24T14:52:43;11.60;99.90
52016;DHT22;38032;53.326;6.472;2023-04-24T14:55:09;11.60;99.90
52016;DHT22;38032;53.326;6.472;2023-04-24T14:57:35;11.50;99.90
52016;DHT22;38032;53.326;6.472;2023-04-24T15:00:04;11.70;99.90
52016;DHT22;38032;53.326;6.472;2023-04-24T15:02:32;11.40;99.90
52016;DHT22;38032;53.326;6.472;2023-04-24T15:04:58;11.40;99.90
52016;DHT22;38032;53.326;6.472;2023-04-24T15:07:24;11.40;99.90
52016;DHT22;38032;53.326;6.472;2023-04-24T15:09:50;11.30;99.90
52016;DHT22;38032;53.326;6.472;2023-04-24T15:12:16;11.30;99.90
52016;DHT22;38032;53.326;6.472;2023-04-24T15:14:42;11.30;99.90
52016;DHT22;38032;53.326;6.472;2023-04-24T15:17:08;11.20;99.90
52016;DHT22;38032;53.326;6.472;2023-04-24T15:19:34;11.10;99.90
52016;DHT22;38032;53.326;6.472;2023-04-24T15:22:00;11.10;99.90
52016;DHT22;38032;53.326;6.472;2023-04-24T15:24:26;11.10;99.90
52016;DHT22;38032;53.326;6.472;2023-04-24T15:26:52;11.10;99.90
52016;DHT22;38032;53.326;6.472;2023-04-24T15:29:18;11.10;99.90
52016;DHT22;38032;53.326;6.472;2023-04-24T15:31:44;11.20;99.90
52016;DHT22;38032;53.326;6.472;2023-04-24T15:34:10;11.20;99.90
52016;DHT22;38032;53.326;6.472;2023-04-24T15:36:36;11.30;99.90